Language: 


Des rapports , des résumés tant et plus, au choix de chacun....


Données Historiques de Météogheer
Journalier Rapport pour Mars 2, 2017 Unitée:  Les deux    Impériale   Métrique
Suivant Jour »
Journalier Hebdomadaire Mensuel Annuel Sur mesure
  Max: Min: Moyenne:
Température: 51.6 °F /  10.9 °C 37.9 °F /  3.3 °C 46 °F /  7.8 °C
Point de rosée: 46.9 °F /  8.3 °C 29.7 °F /  -1.3 °C 34.3 °F /  1.3 °C
Humidité: 97% 51% 64%
Vent: 32.4mph /  52.1km/h - 16.1mph /  25.9km/h
Rafales: 36.9mph /  59.4km/h - -
Vent- - WSW
Pression: 30 in /  1015.1 hPa 29.5 in /  998.9 hPa -
Pluie: 0.01 in /  0.3 mm    
Historical Graphs
 
 
Données tabulaires pour Mars 2, 2017
Heure Température Point de rosée Pression Vent Vent Rafales Humidité Pluie Taux (Horaire) Conditions
00:03 47.7 °F /  8.7 °C 46.9 °F /  8.3 °C 29.5in /  998.9hPa WSW 19.7mph /  31.7km/h 19.7mph /  31.7km/h 97% 0.04in /  1.0mm
00:08 47.7 °F /  8.7 °C 46.6 °F /  8.1 °C 29.5in /  998.9hPa WSW 19.7mph /  31.7km/h 19.7mph /  31.7km/h 96% 0.04in /  1.0mm
00:13 47.7 °F /  8.7 °C 46 °F /  7.8 °C 29.5in /  998.9hPa WSW 19.7mph /  31.7km/h 19.7mph /  31.7km/h 94% 0.04in /  1.0mm
00:18 47.5 °F /  8.6 °C 45.3 °F /  7.4 °C 29.5in /  998.9hPa WSW 23.7mph /  38.1km/h 23.7mph /  38.1km/h 92% 0.04in /  1.0mm
00:23 47.3 °F /  8.5 °C 44.1 °F /  6.7 °C 29.5in /  998.9hPa WSW 28.6mph /  46.0km/h 28.6mph /  46.0km/h 88% 0.03in /  0.8mm
00:28 47.3 °F /  8.5 °C 43.2 °F /  6.2 °C 29.5in /  998.9hPa WSW 23.5mph /  37.8km/h 28.6mph /  46.0km/h 85% 0.03in /  0.8mm
00:33 47.1 °F /  8.4 °C 42.6 °F /  5.9 °C 29.5in /  998.9hPa WSW 23.5mph /  37.8km/h 28.6mph /  46.0km/h 84% 0.03in /  0.8mm
00:38 46.9 °F /  8.3 °C 41.7 °F /  5.4 °C 29.5in /  998.9hPa WSW 23.5mph /  37.8km/h 23.5mph /  37.8km/h 82% 0.03in /  0.8mm
00:43 46.9 °F /  8.3 °C 41.2 °F /  5.1 °C 29.5in /  998.9hPa WSW 23.5mph /  37.8km/h 23.5mph /  37.8km/h 80% 0.02in /  0.5mm
00:48 46.9 °F /  8.3 °C 41.2 °F /  5.1 °C 29.5in /  998.9hPa WSW 23.5mph /  37.8km/h 23.5mph /  37.8km/h 80% 0.01in /  0.3mm
00:53 46.8 °F /  8.2 °C 41.4 °F /  5.2 °C 29.5in /  999.9hPa WSW 23.5mph /  37.8km/h 23.5mph /  37.8km/h 81% 0.01in /  0.3mm
00:58 46.8 °F /  8.2 °C 41 °F /  5.0 °C 29.5in /  999.9hPa WSW 23.5mph /  37.8km/h 23.5mph /  37.8km/h 80% 0.01in /  0.3mm
01:03 46.6 °F /  8.1 °C 40.8 °F /  4.9 °C 29.5in /  999.9hPa WSW 23.5mph /  37.8km/h 23.5mph /  37.8km/h 80% 0.01in /  0.3mm
01:08 46.6 °F /  8.1 °C 40.5 °F /  4.7 °C 29.5in /  999.9hPa WSW 23.5mph /  37.8km/h 23.5mph /  37.8km/h 79% 0.01in /  0.3mm
01:13 46.6 °F /  8.1 °C 40.1 °F /  4.5 °C 29.5in /  999.9hPa WSW 23.5mph /  37.8km/h 23.5mph /  37.8km/h 78% 0.01in /  0.3mm
01:18 46.6 °F /  8.1 °C 40.3 °F /  4.6 °C 29.5in /  999.9hPa West 23mph /  37.0km/h 23mph /  37.0km/h 79% 0.01in /  0.3mm
01:23 46.6 °F /  8.1 °C 39.9 °F /  4.4 °C 29.5in /  999.9hPa West 12.5mph /  20.1km/h 23.9mph /  38.5km/h 78% 0.01in /  0.3mm
01:28 46.6 °F /  8.1 °C 40.3 °F /  4.6 °C 29.5in /  999.9hPa West 15.2mph /  24.5km/h 23.9mph /  38.5km/h 79% 0in /  0.0mm
01:33 46.6 °F /  8.1 °C 40.3 °F /  4.6 °C 29.5in /  999.9hPa West 23.7mph /  38.1km/h 23.7mph /  38.1km/h 79% 0in /  0.0mm
01:38 46.6 °F /  8.1 °C 39.9 °F /  4.4 °C 29.6in /  1000.9hPa West 23.7mph /  38.1km/h 23.7mph /  38.1km/h 78% 0in /  0.0mm
01:43 46.6 °F /  8.1 °C 39.6 °F /  4.2 °C 29.6in /  1000.9hPa West 20.1mph /  32.3km/h 23.7mph /  38.1km/h 77% 0in /  0.0mm
01:48 46.2 °F /  7.9 °C 39.6 °F /  4.2 °C 29.6in /  1000.9hPa West 20.1mph /  32.3km/h 23.7mph /  38.1km/h 77% 0in /  0.0mm
01:53 46.6 °F /  8.1 °C 39.6 °F /  4.2 °C 29.5in /  999.9hPa West 23.5mph /  37.8km/h 23.5mph /  37.8km/h 77% 0in /  0.0mm
01:58 46.6 °F /  8.1 °C 39.6 °F /  4.2 °C 29.5in /  999.9hPa West 14.8mph /  23.8km/h 23.5mph /  37.8km/h 77% 0in /  0.0mm
02:03 46.6 °F /  8.1 °C 39.7 °F /  4.3 °C 29.5in /  999.9hPa West 14.8mph /  23.8km/h 23.5mph /  37.8km/h 77% 0in /  0.0mm
02:08 46.6 °F /  8.1 °C 39.6 °F /  4.2 °C 29.6in /  1000.9hPa WSW 22.6mph /  36.4km/h 23mph /  37.0km/h 76% 0in /  0.0mm
02:13 46.6 °F /  8.1 °C 39 °F /  3.9 °C 29.6in /  1000.9hPa WSW 22.6mph /  36.4km/h 23mph /  37.0km/h 75% 0in /  0.0mm
02:18 46.2 °F /  7.9 °C 38.8 °F /  3.8 °C 29.6in /  1000.9hPa West 22.6mph /  36.4km/h 22.6mph /  36.4km/h 75% 0in /  0.0mm
02:23 46 °F /  7.8 °C 38.3 °F /  3.5 °C 29.6in /  1000.9hPa West 31.3mph /  50.4km/h 31.3mph /  50.4km/h 74% 0in /  0.0mm
02:28 45.9 °F /  7.7 °C 37.8 °F /  3.2 °C 29.6in /  1000.9hPa West 31.3mph /  50.4km/h 31.3mph /  50.4km/h 73% 0in /  0.0mm
02:33 45.9 °F /  7.7 °C 37.2 °F /  2.9 °C 29.6in /  1000.9hPa West 31.3mph /  50.4km/h 31.3mph /  50.4km/h 72% 0in /  0.0mm
02:38 45.7 °F /  7.6 °C 37 °F /  2.8 °C 29.6in /  1001.9hPa West 31.3mph /  50.4km/h 31.3mph /  50.4km/h 72% 0in /  0.0mm
02:44 45.3 °F /  7.4 °C 36.9 °F /  2.7 °C 29.6in /  1001.9hPa West 24.4mph /  39.3km/h 31.3mph /  50.4km/h 72% 0in /  0.0mm
02:49 45.1 °F /  7.3 °C 36.3 °F /  2.4 °C 29.6in /  1001.9hPa WNW 19mph /  30.6km/h 24.4mph /  39.3km/h 71% 0in /  0.0mm
02:54 45.1 °F /  7.3 °C 35.4 °F /  1.9 °C 29.6in /  1001.9hPa WNW 19mph /  30.6km/h 24.4mph /  39.3km/h 69% 0in /  0.0mm
02:59 45.1 °F /  7.3 °C 34.7 °F /  1.5 °C 29.6in /  1001.9hPa WNW 19mph /  30.6km/h 19mph /  30.6km/h 67% 0in /  0.0mm
03:04 44.8 °F /  7.1 °C 35.2 °F /  1.8 °C 29.6in /  1001.9hPa West 19.9mph /  32.0km/h 19.9mph /  32.0km/h 69% 0in /  0.0mm
03:09 44.4 °F /  6.9 °C 34.2 °F /  1.2 °C 29.6in /  1001.9hPa West 19.5mph /  31.4km/h 27.3mph /  43.9km/h 67% 0in /  0.0mm
03:14 44.4 °F /  6.9 °C 34 °F /  1.1 °C 29.6in /  1001.9hPa West 19.5mph /  31.4km/h 27.3mph /  43.9km/h 66% 0in /  0.0mm
03:19 44.4 °F /  6.9 °C 33.1 °F /  0.6 °C 29.6in /  1001.9hPa SW 19.9mph /  32.0km/h 29.5mph /  47.5km/h 64% 0in /  0.0mm
03:24 44.4 °F /  6.9 °C 32.7 °F /  0.4 °C 29.6in /  1001.9hPa West 25.9mph /  41.7km/h 29.5mph /  47.5km/h 63% 0in /  0.0mm
03:29 44.2 °F /  6.8 °C 32.5 °F /  0.3 °C 29.6in /  1001.9hPa West 24.2mph /  38.9km/h 25.9mph /  41.7km/h 63% 0in /  0.0mm
03:34 44.2 °F /  6.8 °C 31.6 °F /  -0.2 °C 29.6in /  1001.9hPa West 22.6mph /  36.4km/h 27.5mph /  44.2km/h 61% 0in /  0.0mm
03:39 44.2 °F /  6.8 °C 32.2 °F /  0.1 °C 29.6in /  1002.9hPa WSW 15.4mph /  24.8km/h 27.5mph /  44.2km/h 62% 0in /  0.0mm
03:44 44.2 °F /  6.8 °C 32 °F /  0.0 °C 29.6in /  1002.9hPa WSW 20.1mph /  32.3km/h 22.6mph /  36.4km/h 62% 0in /  0.0mm
03:49 44.2 °F /  6.8 °C 32.2 °F /  0.1 °C 29.6in /  1002.9hPa West 22.6mph /  36.4km/h 23.3mph /  37.5km/h 62% 0in /  0.0mm
03:54 44.2 °F /  6.8 °C 32.5 °F /  0.3 °C 29.6in /  1002.9hPa WSW 19.5mph /  31.4km/h 23.3mph /  37.5km/h 63% 0in /  0.0mm
03:59 44.2 °F /  6.8 °C 32.9 °F /  0.5 °C 29.6in /  1002.9hPa WSW 19.5mph /  31.4km/h 22.8mph /  36.7km/h 64% 0in /  0.0mm
04:04 44.4 °F /  6.9 °C 33.1 °F /  0.6 °C 29.6in /  1002.9hPa West 21mph /  33.8km/h 21mph /  33.8km/h 64% 0in /  0.0mm
04:09 44.4 °F /  6.9 °C 33.4 °F /  0.8 °C 29.6in /  1002.9hPa WSW 27.1mph /  43.6km/h 27.1mph /  43.6km/h 65% 0in /  0.0mm
04:14 45 °F /  7.2 °C 33.4 °F /  0.8 °C 29.6in /  1002.9hPa West 15.4mph /  24.8km/h 27.1mph /  43.6km/h 64% 0in /  0.0mm
04:19 44.8 °F /  7.1 °C 33.6 °F /  0.9 °C 29.6in /  1002.9hPa West 23.3mph /  37.5km/h 27.1mph /  43.6km/h 65% 0in /  0.0mm
04:24 44.8 °F /  7.1 °C 33.3 °F /  0.7 °C 29.6in /  1002.9hPa West 30.2mph /  48.6km/h 30.6mph /  49.2km/h 64% 0in /  0.0mm
04:29 44.4 °F /  6.9 °C 33.1 °F /  0.6 °C 29.6in /  1002.9hPa West 17.7mph /  28.5km/h 30.6mph /  49.2km/h 64% 0in /  0.0mm
04:34 44.4 °F /  6.9 °C 33.1 °F /  0.6 °C 29.6in /  1002.9hPa WSW 19.7mph /  31.7km/h 25.9mph /  41.7km/h 64% 0in /  0.0mm
04:39 44.4 °F /  6.9 °C 33.4 °F /  0.8 °C 29.6in /  1002.9hPa West 23.5mph /  37.8km/h 25.5mph /  41.0km/h 65% 0in /  0.0mm
04:44 44.4 °F /  6.9 °C 33.1 °F /  0.6 °C 29.6in /  1002.9hPa West 27.5mph /  44.2km/h 29.5mph /  47.5km/h 64% 0in /  0.0mm
04:49 44.4 °F /  6.9 °C 32.7 °F /  0.4 °C 29.6in /  1002.9hPa West 22.4mph /  36.0km/h 29.5mph /  47.5km/h 63% 0in /  0.0mm
04:54 44.8 °F /  7.1 °C 32.9 °F /  0.5 °C 29.6in /  1001.9hPa West 23.9mph /  38.5km/h 27.5mph /  44.2km/h 63% 0in /  0.0mm
04:59 44.8 °F /  7.1 °C 32.5 °F /  0.3 °C 29.6in /  1001.9hPa WSW 27.1mph /  43.6km/h 27.3mph /  43.9km/h 62% 0in /  0.0mm
05:00 44.8 °F /  7.1 °C 32.5 °F /  0.3 °C 29.6in /  1001.9hPa West 19.7mph /  31.7km/h 27.3mph /  43.9km/h 62% 0in /  0.0mm
05:05 44.4 °F /  6.9 °C 32.7 °F /  0.4 °C 29.6in /  1001.9hPa West 19.9mph /  32.0km/h 27.1mph /  43.6km/h 63% 0in /  0.0mm
05:10 44.8 °F /  7.1 °C 33.3 °F /  0.7 °C 29.6in /  1002.9hPa WSW 17.7mph /  28.5km/h 21.9mph /  35.2km/h 64% 0in /  0.0mm
05:15 44.4 °F /  6.9 °C 33.4 °F /  0.8 °C 29.6in /  1002.9hPa West 20.6mph /  33.1km/h 21.9mph /  35.2km/h 65% 0in /  0.0mm
05:20 44.8 °F /  7.1 °C 33.6 °F /  0.9 °C 29.6in /  1002.9hPa WSW 17.4mph /  28.0km/h 23.7mph /  38.1km/h 65% 0in /  0.0mm
05:25 45 °F /  7.2 °C 32.5 °F /  0.3 °C 29.6in /  1003.9hPa West 23mph /  37.0km/h 25.3mph /  40.7km/h 62% 0in /  0.0mm
05:30 45 °F /  7.2 °C 32.5 °F /  0.3 °C 29.6in /  1003.9hPa WSW 23.5mph /  37.8km/h 27.7mph /  44.6km/h 62% 0in /  0.0mm
05:35 45.1 °F /  7.3 °C 32.4 °F /  0.2 °C 29.6in /  1003.9hPa WSW 28.9mph /  46.5km/h 32.7mph /  52.6km/h 61% 0in /  0.0mm
05:40 45.1 °F /  7.3 °C 31.6 °F /  -0.2 °C 29.6in /  1003.9hPa South 23.5mph /  37.8km/h 32.7mph /  52.6km/h 59% 0in /  0.0mm
05:45 45.1 °F /  7.3 °C 30.7 °F /  -0.7 °C 29.6in /  1003.9hPa SSW 26.4mph /  42.5km/h 30.4mph /  48.9km/h 57% 0in /  0.0mm
05:50 45.1 °F /  7.3 °C 30.7 °F /  -0.7 °C 29.6in /  1003.9hPa WSW 28mph /  45.1km/h 30.4mph /  48.9km/h 57% 0in /  0.0mm
05:55 45.1 °F /  7.3 °C 30.7 °F /  -0.7 °C 29.6in /  1003.9hPa WNW 14.1mph /  22.7km/h 30mph /  48.3km/h 57% 0in /  0.0mm
06:00 45 °F /  7.2 °C 30.6 °F /  -0.8 °C 29.6in /  1003.9hPa West 30mph /  48.3km/h 30.2mph /  48.6km/h 57% 0in /  0.0mm
06:05 45 °F /  7.2 °C 30.9 °F /  -0.6 °C 29.6in /  1003.9hPa West 23.9mph /  38.5km/h 30.2mph /  48.6km/h 58% 0in /  0.0mm
06:10 44.8 °F /  7.1 °C 30.7 °F /  -0.7 °C 29.6in /  1003.9hPa West 17.7mph /  28.5km/h 29.3mph /  47.1km/h 58% 0in /  0.0mm
06:15 44.8 °F /  7.1 °C 30.7 °F /  -0.7 °C 29.6in /  1003.9hPa West 19.9mph /  32.0km/h 29.3mph /  47.1km/h 58% 0in /  0.0mm
06:16 44.8 °F /  7.1 °C 30.7 °F /  -0.7 °C 29.6in /  1003.9hPa West 19.9mph /  32.0km/h 29.3mph /  47.1km/h 58% 0in /  0.0mm
06:21 44.8 °F /  7.1 °C 31.3 °F /  -0.4 °C 29.6in /  1003.9hPa West 17.2mph /  27.7km/h 23.3mph /  37.5km/h 59% 0in /  0.0mm
06:26 44.4 °F /  6.9 °C 31.1 °F /  -0.5 °C 29.7in /  1005.0hPa WSW 18.8mph /  30.2km/h 22.8mph /  36.7km/h 59% 0in /  0.0mm
06:31 44.2 °F /  6.8 °C 31.3 °F /  -0.4 °C 29.7in /  1005.0hPa West 22.4mph /  36.0km/h 22.8mph /  36.7km/h 60% 0in /  0.0mm
06:36 44.4 °F /  6.9 °C 30.7 °F /  -0.7 °C 29.7in /  1005.0hPa WSW 22.6mph /  36.4km/h 32mph /  51.5km/h 58% 0in /  0.0mm
06:41 44.4 °F /  6.9 °C 30.7 °F /  -0.7 °C 29.6in /  1003.9hPa WSW 19.2mph /  30.9km/h 32mph /  51.5km/h 58% 0in /  0.0mm
06:46 44.4 °F /  6.9 °C 30.2 °F /  -1.0 °C 29.6in /  1003.9hPa West 22.1mph /  35.6km/h 30mph /  48.3km/h 57% 0in /  0.0mm
06:51 44.2 °F /  6.8 °C 30.6 °F /  -0.8 °C 29.6in /  1003.9hPa West 20.1mph /  32.3km/h 30mph /  48.3km/h 58% 0in /  0.0mm
06:56 44.2 °F /  6.8 °C 30.4 °F /  -0.9 °C 29.7in /  1005.0hPa West 19.7mph /  31.7km/h 30mph /  48.3km/h 58% 0in /  0.0mm
07:01 44.2 °F /  6.8 °C 30 °F /  -1.1 °C 29.7in /  1005.0hPa West 22.4mph /  36.0km/h 26.2mph /  42.2km/h 57% 0in /  0.0mm
07:06 44.2 °F /  6.8 °C 30.6 °F /  -0.8 °C 29.7in /  1005.0hPa West 19.7mph /  31.7km/h 28.6mph /  46.0km/h 58% 0in /  0.0mm
07:11 44.2 °F /  6.8 °C 31.3 °F /  -0.4 °C 29.7in /  1005.0hPa West 14.1mph /  22.7km/h 28.6mph /  46.0km/h 60% 0in /  0.0mm
07:16 44.2 °F /  6.8 °C 30.7 °F /  -0.7 °C 29.7in /  1005.0hPa West 25.1mph /  40.4km/h 25.1mph /  40.4km/h 59% 0in /  0.0mm
07:21 44.2 °F /  6.8 °C 30.7 °F /  -0.7 °C 29.7in /  1005.0hPa WSW 22.4mph /  36.0km/h 25.1mph /  40.4km/h 59% 0in /  0.0mm
07:26 44.2 °F /  6.8 °C 30.4 °F /  -0.9 °C 29.7in /  1006.0hPa SW 27.1mph /  43.6km/h 27.1mph /  43.6km/h 58% 0in /  0.0mm
07:31 44.2 °F /  6.8 °C 29.7 °F /  -1.3 °C 29.7in /  1006.0hPa WSW 27.5mph /  44.2km/h 30.4mph /  48.9km/h 56% 0in /  0.0mm
07:36 44.2 °F /  6.8 °C 29.7 °F /  -1.3 °C 29.7in /  1006.0hPa WSW 13.9mph /  22.4km/h 33.1mph /  53.3km/h 56% 0in /  0.0mm
07:41 44.2 °F /  6.8 °C 29.8 °F /  -1.2 °C 29.7in /  1006.0hPa West 25.1mph /  40.4km/h 33.1mph /  53.3km/h 57% 0in /  0.0mm
07:46 44.2 °F /  6.8 °C 30.4 °F /  -0.9 °C 29.7in /  1006.0hPa West 10.5mph /  16.9km/h 25.1mph /  40.4km/h 58% 0in /  0.0mm
07:51 44.1 °F /  6.7 °C 30.6 °F /  -0.8 °C 29.7in /  1006.0hPa WSW 14.8mph /  23.8km/h 25.1mph /  40.4km/h 59% 0in /  0.0mm
07:56 43.9 °F /  6.6 °C 30.4 °F /  -0.9 °C 29.7in /  1007.0hPa West 15.4mph /  24.8km/h 23.5mph /  37.8km/h 59% 0in /  0.0mm
08:01 44.1 °F /  6.7 °C 30.9 °F /  -0.6 °C 29.7in /  1007.0hPa West 13mph /  20.9km/h 22.8mph /  36.7km/h 60% 0in /  0.0mm
08:06 44.1 °F /  6.7 °C 31.5 °F /  -0.3 °C 29.7in /  1007.0hPa WSW 16.3mph /  26.2km/h 22.4mph /  36.0km/h 61% 0in /  0.0mm
08:11 44.1 °F /  6.7 °C 31.5 °F /  -0.3 °C 29.7in /  1007.0hPa WSW 16.1mph /  25.9km/h 23.7mph /  38.1km/h 61% 0in /  0.0mm
08:16 44.2 °F /  6.8 °C 31.6 °F /  -0.2 °C 29.7in /  1007.0hPa West 15.2mph /  24.5km/h 23.7mph /  38.1km/h 61% 0in /  0.0mm
08:21 44.2 °F /  6.8 °C 32.2 °F /  0.1 °C 29.7in /  1007.0hPa WSW 17mph /  27.4km/h 23.7mph /  38.1km/h 62% 0in /  0.0mm
08:26 44.4 °F /  6.9 °C 32.7 °F /  0.4 °C 29.7in /  1006.0hPa WSW 11mph /  17.7km/h 23mph /  37.0km/h 63% 0in /  0.0mm
08:31 44.4 °F /  6.9 °C 32.7 °F /  0.4 °C 29.7in /  1006.0hPa WSW 13mph /  20.9km/h 20.6mph /  33.1km/h 63% 0in /  0.0mm
08:33 44.8 °F /  7.1 °C 33.3 °F /  0.7 °C 29.7in /  1006.0hPa West 16.3mph /  26.2km/h 20.6mph /  33.1km/h 64% 0in /  0.0mm
08:38 45.1 °F /  7.3 °C 33.6 °F /  0.9 °C 29.7in /  1007.0hPa WSW 22.4mph /  36.0km/h 29.3mph /  47.1km/h 64% 0in /  0.0mm
08:43 45.1 °F /  7.3 °C 34.2 °F /  1.2 °C 29.7in /  1007.0hPa West 16.6mph /  26.7km/h 29.3mph /  47.1km/h 65% 0in /  0.0mm
08:48 45.7 °F /  7.6 °C 33.6 °F /  0.9 °C 29.7in /  1007.0hPa West 16.6mph /  26.7km/h 26.2mph /  42.2km/h 63% 0in /  0.0mm
08:53 45.9 °F /  7.7 °C 34 °F /  1.1 °C 29.7in /  1007.0hPa West 10.7mph /  17.2km/h 23.5mph /  37.8km/h 63% 0in /  0.0mm
08:58 45.9 °F /  7.7 °C 34 °F /  1.1 °C 29.7in /  1007.0hPa West 23.5mph /  37.8km/h 23.5mph /  37.8km/h 63% 0in /  0.0mm
09:03 46 °F /  7.8 °C 33.8 °F /  1.0 °C 29.7in /  1007.0hPa WSW 22.8mph /  36.7km/h 25.3mph /  40.7km/h 62% 0in /  0.0mm
09:08 46 °F /  7.8 °C 34.2 °F /  1.2 °C 29.8in /  1008.0hPa West 11mph /  17.7km/h 25.3mph /  40.7km/h 63% 0in /  0.0mm
09:13 46.2 °F /  7.9 °C 34 °F /  1.1 °C 29.8in /  1008.0hPa West 22.8mph /  36.7km/h 22.8mph /  36.7km/h 62% 0in /  0.0mm
09:18 46.6 °F /  8.1 °C 34.2 °F /  1.2 °C 29.8in /  1008.0hPa WSW 13mph /  20.9km/h 22.8mph /  36.7km/h 62% 0in /  0.0mm
09:23 46.6 °F /  8.1 °C 33.4 °F /  0.8 °C 29.8in /  1008.0hPa West 23.7mph /  38.1km/h 25.9mph /  41.7km/h 60% 0in /  0.0mm
09:28 46.8 °F /  8.2 °C 34.2 °F /  1.2 °C 29.8in /  1008.0hPa West 17.7mph /  28.5km/h 25.9mph /  41.7km/h 61% 0in /  0.0mm
09:33 46.9 °F /  8.3 °C 34.2 °F /  1.2 °C 29.8in /  1008.0hPa WSW 23.9mph /  38.5km/h 24.6mph /  39.6km/h 61% 0in /  0.0mm
09:38 47.1 °F /  8.4 °C 34 °F /  1.1 °C 29.8in /  1009.0hPa WSW 26.6mph /  42.8km/h 26.6mph /  42.8km/h 60% 0in /  0.0mm
09:43 47.3 °F /  8.5 °C 33.6 °F /  0.9 °C 29.8in /  1009.0hPa West 19.9mph /  32.0km/h 34.7mph /  55.8km/h 59% 0in /  0.0mm
09:48 47.7 °F /  8.7 °C 34.5 °F /  1.4 °C 29.8in /  1009.0hPa West 26.8mph /  43.1km/h 34.7mph /  55.8km/h 60% 0in /  0.0mm
09:53 47.8 °F /  8.8 °C 33.4 °F /  0.8 °C 29.8in /  1009.0hPa West 20.4mph /  32.8km/h 31.8mph /  51.2km/h 57% 0in /  0.0mm
09:58 48 °F /  8.9 °C 33.4 °F /  0.8 °C 29.8in /  1009.0hPa WSW 22.8mph /  36.7km/h 31.8mph /  51.2km/h 57% 0in /  0.0mm
10:03 48 °F /  8.9 °C 33.4 °F /  0.8 °C 29.8in /  1009.0hPa WSW 26.4mph /  42.5km/h 28mph /  45.1km/h 57% 0in /  0.0mm
10:08 48.4 °F /  9.1 °C 33.4 °F /  0.8 °C 29.8in /  1009.0hPa West 21.3mph /  34.3km/h 29.5mph /  47.5km/h 56% 0in /  0.0mm
10:13 48.4 °F /  9.1 °C 33.4 °F /  0.8 °C 29.8in /  1009.0hPa West 27.3mph /  43.9km/h 29.5mph /  47.5km/h 56% 0in /  0.0mm
10:18 48.4 °F /  9.1 °C 33.1 °F /  0.6 °C 29.8in /  1009.0hPa West 24.2mph /  38.9km/h 30mph /  48.3km/h 55% 0in /  0.0mm
10:23 48.7 °F /  9.3 °C 33.6 °F /  0.9 °C 29.8in /  1009.0hPa West 23.3mph /  37.5km/h 30mph /  48.3km/h 56% 0in /  0.0mm
10:28 48.7 °F /  9.3 °C 33.3 °F /  0.7 °C 29.8in /  1009.0hPa West 23.3mph /  37.5km/h 34.4mph /  55.3km/h 55% 0in /  0.0mm
10:33 48.9 °F /  9.4 °C 34.3 °F /  1.3 °C 29.8in /  1009.0hPa WSW 23.3mph /  37.5km/h 34.4mph /  55.3km/h 57% 0in /  0.0mm
10:35 48.9 °F /  9.4 °C 34 °F /  1.1 °C 29.8in /  1009.0hPa NW 15.4mph /  24.8km/h 34.4mph /  55.3km/h 56% 0in /  0.0mm
10:40 49.1 °F /  9.5 °C 34.2 °F /  1.2 °C 29.8in /  1009.0hPa West 32.4mph /  52.1km/h 32.4mph /  52.1km/h 56% 0in /  0.0mm
10:45 49.5 °F /  9.7 °C 34 °F /  1.1 °C 29.8in /  1009.0hPa West 25.9mph /  41.7km/h 32.4mph /  52.1km/h 55% 0in /  0.0mm
10:50 49.3 °F /  9.6 °C 33.3 °F /  0.7 °C 29.8in /  1009.0hPa WSW 18.8mph /  30.2km/h 31.1mph /  50.0km/h 54% 0in /  0.0mm
10:55 49.5 °F /  9.7 °C 34 °F /  1.1 °C 29.8in /  1009.0hPa West 16.6mph /  26.7km/h 31.1mph /  50.0km/h 55% 0in /  0.0mm
11:00 49.6 °F /  9.8 °C 32.7 °F /  0.4 °C 29.8in /  1009.0hPa West 23.7mph /  38.1km/h 34.7mph /  55.8km/h 52% 0in /  0.0mm
11:05 49.8 °F /  9.9 °C 33.4 °F /  0.8 °C 29.8in /  1009.0hPa West 23.5mph /  37.8km/h 34.7mph /  55.8km/h 53% 0in /  0.0mm
11:10 49.8 °F /  9.9 °C 33.4 °F /  0.8 °C 29.8in /  1010.0hPa West 26.2mph /  42.2km/h 29.1mph /  46.8km/h 53% 0in /  0.0mm
11:15 49.3 °F /  9.6 °C 32.4 °F /  0.2 °C 29.8in /  1010.0hPa West 10.7mph /  17.2km/h 29.8mph /  47.9km/h 52% 0in /  0.0mm
11:20 49.1 °F /  9.5 °C 32.7 °F /  0.4 °C 29.8in /  1010.0hPa West 17.2mph /  27.7km/h 29.8mph /  47.9km/h 53% 0in /  0.0mm
11:25 48.7 °F /  9.3 °C 32.4 °F /  0.2 °C 29.8in /  1010.0hPa WNW 20.4mph /  32.8km/h 36.9mph /  59.4km/h 53% 0in /  0.0mm
11:30 48.6 °F /  9.2 °C 32.7 °F /  0.4 °C 29.8in /  1010.0hPa West 23.3mph /  37.5km/h 36.9mph /  59.4km/h 54% 0in /  0.0mm
11:35 48.6 °F /  9.2 °C 32.7 °F /  0.4 °C 29.8in /  1010.0hPa West 23.9mph /  38.5km/h 30.4mph /  48.9km/h 54% 0in /  0.0mm
11:40 48.9 °F /  9.4 °C 33.4 °F /  0.8 °C 29.8in /  1010.0hPa West 13.2mph /  21.2km/h 30.2mph /  48.6km/h 55% 0in /  0.0mm
11:45 48.9 °F /  9.4 °C 33.4 °F /  0.8 °C 29.8in /  1010.0hPa WSW 19.7mph /  31.7km/h 28.6mph /  46.0km/h 55% 0in /  0.0mm
11:50 49.1 °F /  9.5 °C 33.6 °F /  0.9 °C 29.8in /  1010.0hPa WNW 22.6mph /  36.4km/h 28.6mph /  46.0km/h 55% 0in /  0.0mm
11:55 49.1 °F /  9.5 °C 33.6 °F /  0.9 °C 29.8in /  1010.0hPa West 22.4mph /  36.0km/h 28.4mph /  45.7km/h 55% 0in /  0.0mm
12:00 49.3 °F /  9.6 °C 32.9 °F /  0.5 °C 29.8in /  1010.0hPa West 14.8mph /  23.8km/h 28.4mph /  45.7km/h 53% 0in /  0.0mm
12:05 49.3 °F /  9.6 °C 32.9 °F /  0.5 °C 29.8in /  1010.0hPa West 22.4mph /  36.0km/h 32.4mph /  52.1km/h 53% 0in /  0.0mm
12:10 50.2 °F /  10.1 °C 34.2 °F /  1.2 °C 29.9in /  1011.1hPa West 22.8mph /  36.7km/h 32.4mph /  52.1km/h 54% 0in /  0.0mm
12:15 50.4 °F /  10.2 °C 33.8 °F /  1.0 °C 29.9in /  1011.1hPa West 18.1mph /  29.1km/h 30.2mph /  48.6km/h 53% 0in /  0.0mm
12:20 50.4 °F /  10.2 °C 33.8 °F /  1.0 °C 29.9in /  1011.1hPa WNW 25.1mph /  40.4km/h 30.4mph /  48.9km/h 53% 0in /  0.0mm
12:25 50.2 °F /  10.1 °C 33.6 °F /  0.9 °C 29.9in /  1011.1hPa WSW 17.4mph /  28.0km/h 30.4mph /  48.9km/h 53% 0in /  0.0mm
12:30 50 °F /  10.0 °C 33.4 °F /  0.8 °C 29.9in /  1011.1hPa West 26.2mph /  42.2km/h 32.9mph /  52.9km/h 53% 0in /  0.0mm
12:35 50.2 °F /  10.1 °C 33.3 °F /  0.7 °C 29.9in /  1011.1hPa WNW 17.7mph /  28.5km/h 32.9mph /  52.9km/h 52% 0in /  0.0mm
12:40 50.4 °F /  10.2 °C 34.3 °F /  1.3 °C 29.9in /  1011.1hPa West 23mph /  37.0km/h 32.7mph /  52.6km/h 54% 0in /  0.0mm
12:45 50 °F /  10.0 °C 33.4 °F /  0.8 °C 29.9in /  1011.1hPa WSW 23.3mph /  37.5km/h 23.9mph /  38.5km/h 53% 0in /  0.0mm
12:50 49.8 °F /  9.9 °C 33.8 °F /  1.0 °C 29.9in /  1011.1hPa WSW 22.8mph /  36.7km/h 25.7mph /  41.4km/h 54% 0in /  0.0mm
12:55 50 °F /  10.0 °C 34 °F /  1.1 °C 29.8in /  1010.0hPa West 19.5mph /  31.4km/h 29.5mph /  47.5km/h 54% 0in /  0.0mm
13:00 50 °F /  10.0 °C 33.1 °F /  0.6 °C 29.8in /  1010.0hPa WSW 17.2mph /  27.7km/h 29.5mph /  47.5km/h 52% 0in /  0.0mm
13:05 50 °F /  10.0 °C 33.4 °F /  0.8 °C 29.8in /  1010.0hPa WSW 22.8mph /  36.7km/h 26.2mph /  42.2km/h 53% 0in /  0.0mm
13:10 49.8 °F /  9.9 °C 33.4 °F /  0.8 °C 29.9in /  1011.1hPa West 14.8mph /  23.8km/h 28.4mph /  45.7km/h 53% 0in /  0.0mm
13:15 49.8 °F /  9.9 °C 33.4 °F /  0.8 °C 29.9in /  1011.1hPa West 21.5mph /  34.6km/h 28.4mph /  45.7km/h 53% 0in /  0.0mm
13:20 49.8 °F /  9.9 °C 32.9 °F /  0.5 °C 29.9in /  1011.1hPa West 18.1mph /  29.1km/h 27.1mph /  43.6km/h 52% 0in /  0.0mm
13:25 49.8 °F /  9.9 °C 33.4 °F /  0.8 °C 29.9in /  1011.1hPa West 17.4mph /  28.0km/h 27.1mph /  43.6km/h 53% 0in /  0.0mm
13:30 49.8 °F /  9.9 °C 32.9 °F /  0.5 °C 29.9in /  1011.1hPa West 22.6mph /  36.4km/h 31.8mph /  51.2km/h 52% 0in /  0.0mm
13:35 50.5 °F /  10.3 °C 34 °F /  1.1 °C 29.9in /  1011.1hPa WSW 21mph /  33.8km/h 31.8mph /  51.2km/h 53% 0in /  0.0mm
13:40 51.3 °F /  10.7 °C 35.1 °F /  1.7 °C 29.9in /  1011.1hPa West 23.7mph /  38.1km/h 28.4mph /  45.7km/h 54% 0in /  0.0mm
13:45 50.5 °F /  10.3 °C 34 °F /  1.1 °C 29.9in /  1011.1hPa WSW 17.4mph /  28.0km/h 28.4mph /  45.7km/h 53% 0in /  0.0mm
13:50 49.8 °F /  9.9 °C 32.9 °F /  0.5 °C 29.9in /  1011.1hPa West 17.7mph /  28.5km/h 26.8mph /  43.1km/h 52% 0in /  0.0mm
13:55 49.5 °F /  9.7 °C 33.1 °F /  0.6 °C 29.9in /  1012.1hPa WSW 23.9mph /  38.5km/h 28mph /  45.1km/h 53% 0in /  0.0mm
14:00 49.5 °F /  9.7 °C 33.1 °F /  0.6 °C 29.9in /  1012.1hPa West 17.4mph /  28.0km/h 28mph /  45.1km/h 53% 0in /  0.0mm
14:05 49.8 °F /  9.9 °C 33.8 °F /  1.0 °C 29.9in /  1012.1hPa WSW 13mph /  20.9km/h 25.5mph /  41.0km/h 54% 0in /  0.0mm
14:10 49.5 °F /  9.7 °C 33.1 °F /  0.6 °C 29.9in /  1012.1hPa West 16.3mph /  26.2km/h 25.3mph /  40.7km/h 53% 0in /  0.0mm
14:15 49.1 °F /  9.5 °C 32.7 °F /  0.4 °C 29.9in /  1012.1hPa West 17.4mph /  28.0km/h 25.3mph /  40.7km/h 53% 0in /  0.0mm
14:20 49.8 °F /  9.9 °C 33.8 °F /  1.0 °C 29.9in /  1012.1hPa WSW 16.6mph /  26.7km/h 23.5mph /  37.8km/h 54% 0in /  0.0mm
14:25 49.8 °F /  9.9 °C 33.4 °F /  0.8 °C 29.9in /  1012.1hPa WSW 19.9mph /  32.0km/h 23mph /  37.0km/h 53% 0in /  0.0mm
14:30 49.6 °F /  9.8 °C 33.3 °F /  0.7 °C 29.9in /  1012.1hPa West 19.9mph /  32.0km/h 23mph /  37.0km/h 53% 0in /  0.0mm
14:35 49.8 °F /  9.9 °C 33.4 °F /  0.8 °C 29.9in /  1012.1hPa West 19.7mph /  31.7km/h 25.3mph /  40.7km/h 53% 0in /  0.0mm
14:40 49.8 °F /  9.9 °C 33.4 °F /  0.8 °C 29.9in /  1013.1hPa West 20.6mph /  33.1km/h 25.3mph /  40.7km/h 53% 0in /  0.0mm
14:45 49.8 °F /  9.9 °C 33.4 °F /  0.8 °C 29.9in /  1013.1hPa West 19.9mph /  32.0km/h 23.9mph /  38.5km/h 53% 0in /  0.0mm
14:51 49.8 °F /  9.9 °C 33.4 °F /  0.8 °C 29.9in /  1013.1hPa West 22.1mph /  35.6km/h 23.9mph /  38.5km/h 53% 0in /  0.0mm
14:56 49.8 °F /  9.9 °C 33.4 °F /  0.8 °C 29.9in /  1013.1hPa WSW 10.7mph /  17.2km/h 22.1mph /  35.6km/h 53% 0in /  0.0mm
15:01 49.8 °F /  9.9 °C 33.4 °F /  0.8 °C 29.9in /  1013.1hPa West 13mph /  20.9km/h 20.1mph /  32.3km/h 53% 0in /  0.0mm
15:06 50 °F /  10.0 °C 33.4 °F /  0.8 °C 29.9in /  1013.1hPa WSW 17.7mph /  28.5km/h 21.3mph /  34.3km/h 53% 0in /  0.0mm
15:11 50.2 °F /  10.1 °C 33.6 °F /  0.9 °C 29.9in /  1013.1hPa West 10.7mph /  17.2km/h 21.3mph /  34.3km/h 53% 0in /  0.0mm
15:16 50.2 °F /  10.1 °C 33.6 °F /  0.9 °C 29.9in /  1013.1hPa West 17.4mph /  28.0km/h 23.3mph /  37.5km/h 53% 0in /  0.0mm
15:21 50.9 °F /  10.5 °C 34.9 °F /  1.6 °C 29.9in /  1013.1hPa West 15.9mph /  25.6km/h 23.3mph /  37.5km/h 54% 0in /  0.0mm
15:26 50.7 °F /  10.4 °C 34.2 °F /  1.2 °C 29.9in /  1013.1hPa WSW 17.7mph /  28.5km/h 23.3mph /  37.5km/h 53% 0in /  0.0mm
15:31 51.3 °F /  10.7 °C 34.2 °F /  1.2 °C 29.9in /  1013.1hPa WSW 14.1mph /  22.7km/h 23.7mph /  38.1km/h 52% 0in /  0.0mm
15:36 51.6 °F /  10.9 °C 34.5 °F /  1.4 °C 29.9in /  1013.1hPa West 15.4mph /  24.8km/h 23.7mph /  38.1km/h 52% 0in /  0.0mm
15:41 51.1 °F /  10.6 °C 34.5 °F /  1.4 °C 29.9in /  1013.1hPa West 10.5mph /  16.9km/h 22.6mph /  36.4km/h 53% 0in /  0.0mm
15:46 50.9 °F /  10.5 °C 34.3 °F /  1.3 °C 29.9in /  1013.1hPa West 11mph /  17.7km/h 18.8mph /  30.2km/h 53% 0in /  0.0mm
15:51 51.4 °F /  10.8 °C 34.3 °F /  1.3 °C 29.9in /  1013.1hPa West 14.8mph /  23.8km/h 21.3mph /  34.3km/h 52% 0in /  0.0mm
15:56 51.4 °F /  10.8 °C 34.3 °F /  1.3 °C 29.9in /  1013.1hPa West 15.4mph /  24.8km/h 21.3mph /  34.3km/h 52% 0in /  0.0mm
16:01 51.4 °F /  10.8 °C 34.3 °F /  1.3 °C 29.9in /  1013.1hPa WSW 15.4mph /  24.8km/h 19.7mph /  31.7km/h 52% 0in /  0.0mm
16:06 51.6 °F /  10.9 °C 34.5 °F /  1.4 °C 29.9in /  1013.1hPa West 12.8mph /  20.6km/h 19.7mph /  31.7km/h 52% 0in /  0.0mm
16:11 51.4 °F /  10.8 °C 34 °F /  1.1 °C 29.9in /  1012.1hPa WSW 13mph /  20.9km/h 22.4mph /  36.0km/h 51% 0in /  0.0mm
16:16 51.6 °F /  10.9 °C 34.5 °F /  1.4 °C 29.9in /  1012.1hPa West 10.5mph /  16.9km/h 22.4mph /  36.0km/h 52% 0in /  0.0mm
16:21 51.6 °F /  10.9 °C 34.5 °F /  1.4 °C 29.9in /  1012.1hPa West 17.2mph /  27.7km/h 18.6mph /  29.9km/h 52% 0in /  0.0mm
16:26 51.4 °F /  10.8 °C 34.3 °F /  1.3 °C 29.9in /  1013.1hPa WSW 17mph /  27.4km/h 19.7mph /  31.7km/h 52% 0in /  0.0mm
16:31 51.1 °F /  10.6 °C 34 °F /  1.1 °C 29.9in /  1013.1hPa West 10.1mph /  16.3km/h 19.9mph /  32.0km/h 52% 0in /  0.0mm
16:36 51.1 °F /  10.6 °C 34.5 °F /  1.4 °C 29.9in /  1013.1hPa West 14.8mph /  23.8km/h 19.9mph /  32.0km/h 53% 0in /  0.0mm
16:41 50.9 °F /  10.5 °C 34.3 °F /  1.3 °C 29.9in /  1013.1hPa WSW 17.9mph /  28.8km/h 20.1mph /  32.3km/h 53% 0in /  0.0mm
16:46 50.5 °F /  10.3 °C 34 °F /  1.1 °C 29.9in /  1013.1hPa West 17.2mph /  27.7km/h 20.1mph /  32.3km/h 53% 0in /  0.0mm
16:51 50.4 °F /  10.2 °C 34.3 °F /  1.3 °C 29.9in /  1013.1hPa West 19.5mph /  31.4km/h 19.9mph /  32.0km/h 54% 0in /  0.0mm
16:56 49.8 °F /  9.9 °C 33.4 °F /  0.8 °C 29.9in /  1013.1hPa West 9.8mph /  15.8km/h 19.5mph /  31.4km/h 53% 0in /  0.0mm
17:01 49.8 °F /  9.9 °C 33.8 °F /  1.0 °C 29.9in /  1013.1hPa West 13.4mph /  21.6km/h 19.5mph /  31.4km/h 54% 0in /  0.0mm
17:06 49.6 °F /  9.8 °C 33.6 °F /  0.9 °C 29.9in /  1013.1hPa West 13mph /  20.9km/h 17.7mph /  28.5km/h 54% 0in /  0.0mm
17:11 49.5 °F /  9.7 °C 34 °F /  1.1 °C 29.9in /  1013.1hPa WSW 12.5mph /  20.1km/h 15.4mph /  24.8km/h 55% 0in /  0.0mm
17:16 49.3 °F /  9.6 °C 33.3 °F /  0.7 °C 29.9in /  1013.1hPa WSW 17.2mph /  27.7km/h 17.4mph /  28.0km/h 54% 0in /  0.0mm
17:21 49.3 °F /  9.6 °C 32.9 °F /  0.5 °C 29.9in /  1013.1hPa WSW 15.9mph /  25.6km/h 19.7mph /  31.7km/h 53% 0in /  0.0mm
17:26 49.1 °F /  9.5 °C 32.2 °F /  0.1 °C 29.9in /  1013.1hPa WSW 17.9mph /  28.8km/h 22.8mph /  36.7km/h 52% 0in /  0.0mm
17:31 48.7 °F /  9.3 °C 31.8 °F /  -0.1 °C 29.9in /  1013.1hPa West 15.4mph /  24.8km/h 22.8mph /  36.7km/h 52% 0in /  0.0mm
17:36 48.6 °F /  9.2 °C 31.3 °F /  -0.4 °C 29.9in /  1013.1hPa WSW 14.3mph /  23.0km/h 20.6mph /  33.1km/h 51% 0in /  0.0mm
17:41 48.4 °F /  9.1 °C 31.6 °F /  -0.2 °C 29.9in /  1013.1hPa West 19.9mph /  32.0km/h 19.9mph /  32.0km/h 52% 0in /  0.0mm
17:46 48.4 °F /  9.1 °C 32 °F /  0.0 °C 29.9in /  1013.1hPa West 12.5mph /  20.1km/h 19.9mph /  32.0km/h 53% 0in /  0.0mm
17:51 48 °F /  8.9 °C 32.2 °F /  0.1 °C 29.9in /  1013.1hPa WSW 7.8mph /  12.6km/h 17.4mph /  28.0km/h 54% 0in /  0.0mm
17:56 47.7 °F /  8.7 °C 32.4 °F /  0.2 °C 29.9in /  1014.1hPa West 7.6mph /  12.2km/h 15.7mph /  25.3km/h 55% 0in /  0.0mm
18:01 47.3 °F /  8.5 °C 32.9 °F /  0.5 °C 29.9in /  1014.1hPa WSW 8.5mph /  13.7km/h 13mph /  20.9km/h 57% 0in /  0.0mm
18:06 46.9 °F /  8.3 °C 33.4 °F /  0.8 °C 29.9in /  1014.1hPa WSW 12.5mph /  20.1km/h 13.2mph /  21.2km/h 59% 0in /  0.0mm
18:11 46.9 °F /  8.3 °C 33.4 °F /  0.8 °C 29.9in /  1014.1hPa WSW 13.6mph /  21.9km/h 17.4mph /  28.0km/h 59% 0in /  0.0mm
18:16 46.6 °F /  8.1 °C 33.4 °F /  0.8 °C 29.9in /  1014.1hPa WNW 7.4mph /  11.9km/h 17.4mph /  28.0km/h 60% 0in /  0.0mm
18:21 46.2 °F /  7.9 °C 33.6 °F /  0.9 °C 29.9in /  1014.1hPa WSW 12.5mph /  20.1km/h 15.2mph /  24.5km/h 61% 0in /  0.0mm
18:26 46.2 °F /  7.9 °C 33.3 °F /  0.7 °C 29.9in /  1014.1hPa West 13mph /  20.9km/h 18.1mph /  29.1km/h 60% 0in /  0.0mm
18:36 45.7 °F /  7.6 °C 32.9 °F /  0.5 °C 29.9in /  1014.1hPa WSW 7.6mph /  12.2km/h 14.8mph /  23.8km/h 61% 0in /  0.0mm
18:41 45.1 °F /  7.3 °C 33.3 °F /  0.7 °C 29.9in /  1014.1hPa WSW 7.4mph /  11.9km/h 10.1mph /  16.3km/h 63% 0in /  0.0mm
18:46 45 °F /  7.2 °C 34.2 °F /  1.2 °C 29.9in /  1014.1hPa WSW 8.7mph /  14.0km/h 12.1mph /  19.5km/h 66% 0in /  0.0mm
18:51 44.8 °F /  7.1 °C 34.9 °F /  1.6 °C 29.9in /  1014.1hPa WSW 9.4mph /  15.1km/h 13mph /  20.9km/h 68% 0in /  0.0mm
18:56 44.4 °F /  6.9 °C 34.5 °F /  1.4 °C 29.9in /  1014.1hPa WSW 5.8mph /  9.3km/h 13mph /  20.9km/h 68% 0in /  0.0mm
19:01 44.2 °F /  6.8 °C 35.1 °F /  1.7 °C 29.9in /  1014.1hPa WSW 8.9mph /  14.3km/h 10.3mph /  16.6km/h 70% 0in /  0.0mm
19:06 44.1 °F /  6.7 °C 35.2 °F /  1.8 °C 29.9in /  1014.1hPa WSW 9.8mph /  15.8km/h 10.3mph /  16.6km/h 71% 0in /  0.0mm
19:11 43.9 °F /  6.6 °C 35.1 °F /  1.7 °C 29.9in /  1014.1hPa SW 7.6mph /  12.2km/h 10.3mph /  16.6km/h 71% 0in /  0.0mm
19:16 43.9 °F /  6.6 °C 35.8 °F /  2.1 °C 29.9in /  1014.1hPa WSW 8.5mph /  13.7km/h 10.3mph /  16.6km/h 73% 0in /  0.0mm
19:21 43.5 °F /  6.4 °C 35.6 °F /  2.0 °C 29.9in /  1014.1hPa WSW 8.7mph /  14.0km/h 11.9mph /  19.1km/h 73% 0in /  0.0mm
19:26 43.5 °F /  6.4 °C 35.4 °F /  1.9 °C 29.9in /  1014.1hPa WSW 7.2mph /  11.6km/h 11.9mph /  19.1km/h 73% 0in /  0.0mm
19:31 43.2 °F /  6.2 °C 35.4 °F /  1.9 °C 29.9in /  1014.1hPa WSW 6.5mph /  10.5km/h 8.5mph /  13.7km/h 74% 0in /  0.0mm
19:36 43.2 °F /  6.2 °C 35.4 °F /  1.9 °C 29.9in /  1014.1hPa WSW 5.4mph /  8.7km/h 8.5mph /  13.7km/h 74% 0in /  0.0mm
19:41 43 °F /  6.1 °C 35.6 °F /  2.0 °C 30in /  1015.1hPa WSW 6mph /  9.7km/h 8.5mph /  13.7km/h 75% 0in /  0.0mm
19:46 42.8 °F /  6.0 °C 35.4 °F /  1.9 °C 30in /  1015.1hPa WSW 6.3mph /  10.1km/h 7.6mph /  12.2km/h 75% 0in /  0.0mm
19:51 43 °F /  6.1 °C 36 °F /  2.2 °C 30in /  1015.1hPa SW 5.6mph /  9.0km/h 8.7mph /  14.0km/h 76% 0in /  0.0mm
19:56 43.2 °F /  6.2 °C 36.3 °F /  2.4 °C 30in /  1015.1hPa SW 5.6mph /  9.0km/h 8.7mph /  14.0km/h 77% 0in /  0.0mm
20:01 43.3 °F /  6.3 °C 36.7 °F /  2.6 °C 30in /  1015.1hPa WSW 5.6mph /  9.0km/h 7.6mph /  12.2km/h 77% 0in /  0.0mm
20:06 43.2 °F /  6.2 °C 36.3 °F /  2.4 °C 30in /  1015.1hPa WSW 4.9mph /  7.9km/h 8.1mph /  13.0km/h 77% 0in /  0.0mm
20:11 43.2 °F /  6.2 °C 36.3 °F /  2.4 °C 29.9in /  1014.1hPa SW 6.5mph /  10.5km/h 8.1mph /  13.0km/h 77% 0in /  0.0mm
20:16 43 °F /  6.1 °C 36.1 °F /  2.3 °C 29.9in /  1014.1hPa WSW 6.3mph /  10.1km/h 8.1mph /  13.0km/h 77% 0in /  0.0mm
20:21 42.8 °F /  6.0 °C 36 °F /  2.2 °C 29.9in /  1014.1hPa WSW 5.6mph /  9.0km/h 7.4mph /  11.9km/h 77% 0in /  0.0mm
20:26 42.8 °F /  6.0 °C 36 °F /  2.2 °C 29.9in /  1014.1hPa SSW 7.6mph /  12.2km/h 7.6mph /  12.2km/h 77% 0in /  0.0mm
20:31 43 °F /  6.1 °C 36.1 °F /  2.3 °C 29.9in /  1014.1hPa SW 5.6mph /  9.0km/h 7.6mph /  12.2km/h 77% 0in /  0.0mm
20:36 43 °F /  6.1 °C 36.1 °F /  2.3 °C 29.9in /  1014.1hPa WSW 4.9mph /  7.9km/h 7.6mph /  12.2km/h 77% 0in /  0.0mm
20:41 43 °F /  6.1 °C 36.1 °F /  2.3 °C 29.9in /  1014.1hPa WSW 5.4mph /  8.7km/h 7.2mph /  11.6km/h 77% 0in /  0.0mm
20:46 43 °F /  6.1 °C 36.1 °F /  2.3 °C 29.9in /  1014.1hPa SW 5.4mph /  8.7km/h 7.2mph /  11.6km/h 77% 0in /  0.0mm
20:51 42.8 °F /  6.0 °C 36 °F /  2.2 °C 29.9in /  1014.1hPa WSW 5.4mph /  8.7km/h 7.2mph /  11.6km/h 77% 0in /  0.0mm
20:56 42.8 °F /  6.0 °C 36 °F /  2.2 °C 29.9in /  1014.1hPa WSW 4.9mph /  7.9km/h 7.2mph /  11.6km/h 77% 0in /  0.0mm
21:01 42.8 °F /  6.0 °C 36 °F /  2.2 °C 29.9in /  1014.1hPa SW 6.5mph /  10.5km/h 7.6mph /  12.2km/h 77% 0in /  0.0mm
21:06 42.6 °F /  5.9 °C 36 °F /  2.2 °C 29.9in /  1014.1hPa SW 5.4mph /  8.7km/h 7.6mph /  12.2km/h 77% 0in /  0.0mm
21:11 42.8 °F /  6.0 °C 36 °F /  2.2 °C 29.9in /  1014.1hPa SSW 6.3mph /  10.1km/h 7.4mph /  11.9km/h 77% 0in /  0.0mm
21:17 42.8 °F /  6.0 °C 36 °F /  2.2 °C 29.9in /  1014.1hPa WSW 5.6mph /  9.0km/h 6.5mph /  10.5km/h 77% 0in /  0.0mm
21:22 42.6 °F /  5.9 °C 36 °F /  2.2 °C 29.9in /  1014.1hPa SSW 4.9mph /  7.9km/h 6.3mph /  10.1km/h 77% 0in /  0.0mm
21:27 42.4 °F /  5.8 °C 35.8 °F /  2.1 °C 30in /  1015.1hPa SW 5.6mph /  9.0km/h 5.8mph /  9.3km/h 77% 0in /  0.0mm
21:32 42.3 °F /  5.7 °C 35.4 °F /  1.9 °C 30in /  1015.1hPa SW 4.9mph /  7.9km/h 6mph /  9.7km/h 77% 0in /  0.0mm
21:37 42.4 °F /  5.8 °C 36 °F /  2.2 °C 30in /  1015.1hPa WSW 4.9mph /  7.9km/h 6.3mph /  10.1km/h 78% 0in /  0.0mm
21:42 42.3 °F /  5.7 °C 36 °F /  2.2 °C 29.9in /  1014.1hPa SSW 6mph /  9.7km/h 6.3mph /  10.1km/h 78% 0in /  0.0mm
21:47 42.3 °F /  5.7 °C 36 °F /  2.2 °C 29.9in /  1014.1hPa WSW 4.9mph /  7.9km/h 6.3mph /  10.1km/h 78% 0in /  0.0mm
21:52 42.3 °F /  5.7 °C 36 °F /  2.2 °C 29.9in /  1014.1hPa WSW 4.5mph /  7.2km/h 7.2mph /  11.6km/h 78% 0in /  0.0mm
21:57 41.5 °F /  5.3 °C 34.9 °F /  1.6 °C 30in /  1015.1hPa Calm   7.2mph /  11.6km/h 77% 0in /  0.0mm
22:02 41.4 °F /  5.2 °C 34.7 °F /  1.5 °C 30in /  1015.1hPa Calm   4.9mph /  7.9km/h 77% 0in /  0.0mm
22:07 41 °F /  5.0 °C 34.7 °F /  1.5 °C 30in /  1015.1hPa Calm   4.7mph /  7.6km/h 78% 0in /  0.0mm
22:12 40.8 °F /  4.9 °C 34.5 °F /  1.4 °C 29.9in /  1014.1hPa Calm   2.7mph /  4.3km/h 78% 0in /  0.0mm
22:17 40.5 °F /  4.7 °C 34.2 °F /  1.2 °C 29.9in /  1014.1hPa Calm   3.1mph /  5.0km/h 78% 0in /  0.0mm
22:22 40.1 °F /  4.5 °C 33.8 °F /  1.0 °C 29.9in /  1014.1hPa Calm   3.1mph /  5.0km/h 78% 0in /  0.0mm
22:27 39.7 °F /  4.3 °C 33.8 °F /  1.0 °C 29.9in /  1014.1hPa Calm   2.2mph /  3.5km/h 79% 0in /  0.0mm
22:32 39.4 °F /  4.1 °C 33.4 °F /  0.8 °C 29.9in /  1014.1hPa Calm   1.6mph /  2.6km/h 79% 0in /  0.0mm
22:37 39.2 °F /  4.0 °C 33.3 °F /  0.7 °C 29.9in /  1014.1hPa Calm     79% 0in /  0.0mm
22:42 39 °F /  3.9 °C 33.4 °F /  0.8 °C 29.9in /  1014.1hPa Calm     80% 0in /  0.0mm
22:47 38.8 °F /  3.8 °C 33.4 °F /  0.8 °C 29.9in /  1014.1hPa Calm   2.7mph /  4.3km/h 81% 0in /  0.0mm
22:52 38.7 °F /  3.7 °C 33.4 °F /  0.8 °C 29.9in /  1014.1hPa SW 2.9mph /  4.7km/h 3.1mph /  5.0km/h 81% 0in /  0.0mm
22:57 38.7 °F /  3.7 °C 33.6 °F /  0.9 °C 29.9in /  1014.1hPa Calm   3.1mph /  5.0km/h 82% 0in /  0.0mm
23:02 38.7 °F /  3.7 °C 33.6 °F /  0.9 °C 29.9in /  1014.1hPa Calm   2.7mph /  4.3km/h 82% 0in /  0.0mm
23:07 38.5 °F /  3.6 °C 33.4 °F /  0.8 °C 29.9in /  1014.1hPa Calm   2.5mph /  4.0km/h 82% 0in /  0.0mm
23:12 38.5 °F /  3.6 °C 33.3 °F /  0.7 °C 29.9in /  1014.1hPa South 2.9mph /  4.7km/h 3.6mph /  5.8km/h 82% 0in /  0.0mm
23:17 38.5 °F /  3.6 °C 33.6 °F /  0.9 °C 29.9in /  1014.1hPa Calm   3.8mph /  6.1km/h 83% 0in /  0.0mm
23:22 38.5 °F /  3.6 °C 33.6 °F /  0.9 °C 29.9in /  1014.1hPa Calm   4.3mph /  6.9km/h 83% 0in /  0.0mm
23:27 38.5 °F /  3.6 °C 33.6 °F /  0.9 °C 29.9in /  1014.1hPa Calm   4.3mph /  6.9km/h 83% 0in /  0.0mm
23:32 38.1 °F /  3.4 °C 33.8 °F /  1.0 °C 29.9in /  1014.1hPa South 1.3mph /  2.1km/h 2.5mph /  4.0km/h 84% 0in /  0.0mm
23:37 37.9 °F /  3.3 °C 33.6 °F /  0.9 °C 29.9in /  1014.1hPa South 2.5mph /  4.0km/h 3.1mph /  5.0km/h 84% 0in /  0.0mm
23:42 37.9 °F /  3.3 °C 34 °F /  1.1 °C 29.9in /  1014.1hPa Calm   3.4mph /  5.5km/h 85% 0in /  0.0mm
23:47 37.9 °F /  3.3 °C 34 °F /  1.1 °C 29.9in /  1014.1hPa Calm   3.4mph /  5.5km/h 85% 0in /  0.0mm
23:52 37.9 °F /  3.3 °C 34 °F /  1.1 °C 29.9in /  1014.1hPa Calm   2.2mph /  3.5km/h 85% 0in /  0.0mm
23:57 37.9 °F /  3.3 °C 34 °F /  1.1 °C 29.9in /  1014.1hPa SSE 2.7mph /  4.3km/h 2.7mph /  4.3km/h 85% 0in /  0.0mm
Données Historique de Météo Turbie

Mise a jour : 25/05/2018 06:52:16
Généré par Cumulus 1.9.4 (1099)